Time;durP1;ratioP1;P1;durP2;ratioP2;P2;SDS_P1;SDS_P2;PMS_P1;PMS_P2;Temp;Humidity;BMP_temperature;BMP_pressure;BME280_temperature;BME280_humidity;BME280_pressure;Samples;Min_cycle;Max_cycle;Signal;HPM_P1;HPM_P2
2021/06/08 00:02:21;;;;;;;;;16.25;15.75;;;;;19.76;57.95;101973.22;5013122;28;45464;-76
2021/06/08 00:04:46;;;;;;;;;16.50;15.50;;;;;19.75;57.98;101983.03;5014198;28;45559;-75
2021/06/08 00:07:11;;;;;;;;;18.75;14.00;;;;;19.74;58.00;101977.81;5013420;28;45415;-75
2021/06/08 00:09:37;;;;;;;;;20.25;19.00;;;;;19.67;58.22;101969.28;5013299;28;45513;-77
2021/06/08 00:12:03;;;;;;;;;15.50;14.00;;;;;19.67;58.26;101974.63;5012380;28;46413;-76
2021/06/08 00:14:28;;;;;;;;;16.00;15.50;;;;;19.65;58.34;101967.69;5012514;28;46788;-77
2021/06/08 00:16:53;;;;;;;;;14.25;14.25;;;;;19.64;58.53;101964.16;5012886;28;59966;-77
2021/06/08 00:19:19;;;;;;;;;17.25;17.25;;;;;19.61;58.24;101961.69;5015138;28;45450;-77
2021/06/08 00:21:44;;;;;;;;;22.75;15.00;;;;;19.60;57.99;101957.31;5012290;28;45280;-77
2021/06/08 00:24:09;;;;;;;;;21.00;17.00;;;;;19.59;58.57;101952.03;5013484;28;46146;-77
2021/06/08 00:26:36;;;;;;;;;20.50;17.25;;;;;19.53;58.36;101940.78;4998454;28;45477;-77
2021/06/08 00:29:01;;;;;;;;;18.25;16.50;;;;;19.48;58.28;101948.22;5012383;28;45640;-78
2021/06/08 00:31:33;;;;;;;;;20.75;17.75;;;;;19.48;57.91;101942.88;5011563;28;45450;-78
2021/06/08 00:33:58;;;;;;;;;20.00;13.00;;;;;19.45;58.44;101952.88;5013248;28;45657;-75
2021/06/08 00:36:23;;;;;;;;;15.50;14.75;;;;;19.44;58.94;101954.69;5013203;28;45497;-76
2021/06/08 00:38:49;;;;;;;;;21.25;15.00;;;;;19.43;58.85;101952.97;5011488;28;45620;-76
2021/06/08 00:41:14;;;;;;;;;14.75;14.75;;;;;19.38;58.98;101944.41;5012869;28;45438;-76
2021/06/08 00:43:39;;;;;;;;;16.00;15.25;;;;;19.38;59.38;101954.22;5013902;28;45441;-76
2021/06/08 00:46:05;;;;;;;;;18.00;16.75;;;;;19.35;58.83;101952.56;5013033;28;45898;-76
2021/06/08 00:48:30;;;;;;;;;19.25;16.00;;;;;19.31;59.48;101945.69;5012922;28;45335;-76
2021/06/08 00:50:55;;;;;;;;;14.50;14.00;;;;;19.28;59.38;101949.44;5012837;28;45457;-76
2021/06/08 00:53:21;;;;;;;;;16.50;16.50;;;;;19.30;59.55;101955.50;5012267;28;47290;-75
2021/06/08 00:55:46;;;;;;;;;16.00;15.75;;;;;19.24;59.37;101955.88;5010869;28;45496;-76
2021/06/08 00:58:12;;;;;;;;;20.50;16.75;;;;;19.22;59.92;101954.28;5011440;28;45355;-76
2021/06/08 01:00:37;;;;;;;;;14.50;13.50;;;;;19.13;59.87;101957.47;5013700;28;45563;-75
2021/06/08 01:03:04;;;;;;;;;19.00;16.50;;;;;19.14;60.02;101967.19;5009223;28;45365;-76
2021/06/08 01:05:30;;;;;;;;;18.00;16.50;;;;;19.09;59.81;101967.44;4999946;28;45411;-75
2021/06/08 01:07:55;;;;;;;;;18.25;14.25;;;;;19.03;59.59;101963.34;5011768;28;45522;-75
2021/06/08 01:10:20;;;;;;;;;17.50;16.50;;;;;18.95;60.05;101959.41;5014626;28;45332;-75
2021/06/08 01:12:46;;;;;;;;;22.00;19.00;;;;;18.96;59.79;101951.34;5011437;28;46319;-75
2021/06/08 01:15:11;;;;;;;;;16.25;16.00;;;;;18.94;59.72;101955.03;5013525;28;45441;-76
2021/06/08 01:17:37;;;;;;;;;16.00;15.50;;;;;18.90;59.76;101950.84;5015616;28;45989;-76
2021/06/08 01:20:03;;;;;;;;;20.75;18.25;;;;;18.89;59.77;101963.28;5016061;28;45363;-76
2021/06/08 01:22:29;;;;;;;;;18.75;18.00;;;;;18.85;59.81;101960.91;5016682;28;46741;-76
2021/06/08 01:24:55;;;;;;;;;18.75;17.75;;;;;18.81;59.96;101951.38;5015604;28;45538;-76
2021/06/08 01:27:22;;;;;;;;;16.00;14.50;;;;;18.82;60.49;101955.75;5014837;28;45556;-76
2021/06/08 01:29:50;;;;;;;;;19.25;17.00;;;;;18.81;60.65;101956.72;5015882;28;45405;-76
2021/06/08 01:32:17;;;;;;;;;19.00;17.75;;;;;18.80;60.73;101957.66;5015969;28;46135;-76
2021/06/08 01:34:44;;;;;;;;;18.50;18.50;;;;;18.81;60.90;101956.72;5017388;28;45718;-76
2021/06/08 01:37:10;;;;;;;;;18.00;16.25;;;;;18.80;60.97;101958.53;5016746;28;45421;-76
2021/06/08 01:39:37;;;;;;;;;18.00;17.00;;;;;18.76;60.60;101955.16;5014868;28;45506;-76
2021/06/08 01:42:04;;;;;;;;;19.00;16.75;;;;;18.70;60.67;101944.88;5014998;28;46558;-76
2021/06/08 01:44:30;;;;;;;;;22.50;17.75;;;;;18.72;60.90;101952.78;5015831;28;45398;-76
2021/06/08 01:46:56;;;;;;;;;19.50;18.75;;;;;18.69;60.94;101944.97;5015943;28;45569;-76
2021/06/08 01:49:21;;;;;;;;;20.25;17.75;;;;;18.66;61.08;101945.09;5016615;28;45386;-75
2021/06/08 01:51:59;;;;;;;;;17.00;16.00;;;;;18.64;61.25;101947.00;5014979;28;46861;-75
2021/06/08 01:54:56;;;;;;;;;16.50;15.00;;;;;18.60;61.10;101951.66;5008276;28;45365;-75
2021/06/08 01:57:43;;;;;;;;;16.75;16.00;;;;;18.55;61.72;101950.19;5009465;28;45358;-76
2021/06/08 02:00:13;;;;;;;;;17.00;16.00;;;;;18.51;62.01;101960.16;5015637;28;45391;-76
2021/06/08 02:03:04;;;;;;;;;18.75;17.50;;;;;18.47;62.19;101956.78;5014000;28;46721;-76
2021/06/08 02:05:44;;;;;;;;;18.00;16.75;;;;;18.46;62.39;101962.22;5001375;28;45858;-76
2021/06/08 02:08:27;;;;;;;;;25.50;18.50;;;;;18.40;62.46;101974.06;5008620;28;45369;-75
2021/06/08 02:11:05;;;;;;;;;18.00;15.50;;;;;18.39;62.07;101972.34;5014381;28;45301;-75
2021/06/08 02:13:53;;;;;;;;;19.00;18.00;;;;;18.37;62.19;101981.34;5016298;28;46609;-75
2021/06/08 02:16:29;;;;;;;;;25.75;20.50;;;;;18.26;61.61;101966.84;5016372;28;45806;-76
2021/06/08 02:18:55;;;;;;;;;25.00;23.75;;;;;18.29;61.90;101984.47;5015933;28;45378;-75
2021/06/08 02:21:31;;;;;;;;;21.00;19.50;;;;;18.26;61.89;101982.81;5015426;28;45480;-76
2021/06/08 02:23:57;;;;;;;;;23.75;18.50;;;;;18.24;62.03;101991.84;5011167;28;45430;-75
2021/06/08 02:26:25;;;;;;;;;20.50;20.00;;;;;18.23;62.06;101984.81;5000817;28;45643;-75
2021/06/08 02:28:54;;;;;;;;;23.00;21.50;;;;;18.17;62.42;101980.69;5015609;28;45477;-75
2021/06/08 02:31:21;;;;;;;;;22.25;21.00;;;;;18.17;62.12;101986.00;5016504;28;45541;-75
2021/06/08 02:33:49;;;;;;;;;18.50;18.00;;;;;18.09;62.33;101974.06;5015620;28;45571;-76
2021/06/08 02:36:15;;;;;;;;;25.00;23.00;;;;;18.15;62.17;101979.03;5014608;28;45548;-75
2021/06/08 02:38:42;;;;;;;;;21.50;20.00;;;;;18.13;62.06;101978.25;5013988;28;46693;-76
2021/06/08 02:41:09;;;;;;;;;19.50;18.25;;;;;18.12;62.40;101985.38;5015222;28;45571;-76
2021/06/08 02:43:37;;;;;;;;;25.75;21.75;;;;;18.09;62.31;101988.19;5016158;28;47044;-75
2021/06/08 02:46:04;;;;;;;;;27.00;23.75;;;;;18.06;62.03;101983.03;5014728;28;45532;-76
2021/06/08 02:48:30;;;;;;;;;28.50;22.25;;;;;18.06;62.26;101984.84;5015550;28;45597;-76
2021/06/08 02:50:57;;;;;;;;;25.50;22.75;;;;;18.00;61.96;101978.91;5014313;28;46808;-75
2021/06/08 02:53:24;;;;;;;;;25.00;22.00;;;;;18.01;62.48;101982.47;5013026;28;46410;-75
2021/06/08 02:55:51;;;;;;;;;20.25;18.50;;;;;18.02;62.58;101991.28;5012754;28;45469;-74
2021/06/08 02:58:18;;;;;;;;;25.00;23.75;;;;;17.98;62.73;101985.28;5015357;28;45412;-76
2021/06/08 03:00:44;;;;;;;;;23.25;20.50;;;;;17.97;62.46;101987.06;5014737;28;45508;-76
2021/06/08 03:03:13;;;;;;;;;29.50;24.25;;;;;17.95;62.55;101990.75;5014349;28;45397;-76
2021/06/08 03:05:42;;;;;;;;;21.75;20.00;;;;;17.94;62.49;101992.56;5012726;28;46017;-75
2021/06/08 03:08:21;;;;;;;;;24.50;18.75;;;;;17.91;62.67;101992.72;5014057;28;45390;-77
2021/06/08 03:10:49;;;;;;;;;24.00;22.50;;;;;17.90;63.04;102000.78;5012598;28;45442;-75
2021/06/08 03:13:18;;;;;;;;;24.50;22.25;;;;;17.84;62.93;101999.31;5015382;28;45505;-76
2021/06/08 03:15:53;;;;;;;;;28.50;24.50;;;;;17.83;62.98;101994.06;5014476;28;45927;-76
2021/06/08 03:18:27;;;;;;;;;26.50;21.75;;;;;17.79;63.70;101993.38;5013943;28;45529;-76
2021/06/08 03:21:09;;;;;;;;;25.50;22.00;;;;;17.75;63.05;102002.47;5012025;28;45465;-76
2021/06/08 03:23:39;;;;;;;;;25.25;24.50;;;;;17.71;63.57;102007.06;5012318;28;45794;-74
2021/06/08 03:26:07;;;;;;;;;25.50;21.00;;;;;17.73;63.15;101991.03;5014039;28;47145;-75
2021/06/08 03:28:35;;;;;;;;;29.50;21.75;;;;;17.72;63.38;102003.47;5014964;28;45441;-75
2021/06/08 03:31:02;;;;;;;;;22.50;20.25;;;;;17.71;63.36;102003.53;5014067;28;45274;-76
2021/06/08 03:33:29;;;;;;;;;25.50;20.75;;;;;17.69;63.42;102008.91;5014000;28;45593;-75
2021/06/08 03:35:56;;;;;;;;;27.75;24.75;;;;;17.69;63.45;102008.06;5013908;28;45702;-76
2021/06/08 03:38:24;;;;;;;;;26.75;23.25;;;;;17.67;63.46;102009.94;5012143;28;45365;-75
2021/06/08 03:40:53;;;;;;;;;27.00;20.50;;;;;17.66;63.54;102008.22;5015374;28;45406;-75
2021/06/08 03:43:19;;;;;;;;;30.00;23.75;;;;;17.63;64.03;101995.94;5012951;28;45695;-76
2021/06/08 03:45:49;;;;;;;;;31.00;23.75;;;;;17.62;63.76;102004.00;5013875;28;45776;-76
2021/06/08 03:48:19;;;;;;;;;25.50;20.25;;;;;17.60;63.79;102004.09;5012656;28;45388;-75
2021/06/08 03:50:46;;;;;;;;;27.00;25.75;;;;;17.60;63.76;102009.41;5009830;28;45494;-75
2021/06/08 03:53:11;;;;;;;;;25.00;23.00;;;;;17.58;63.98;102010.41;5013609;28;46020;-74
2021/06/08 03:55:37;;;;;;;;;33.50;26.00;;;;;17.60;63.65;102013.88;5011213;28;45459;-75
2021/06/08 03:58:11;;;;;;;;;26.00;21.00;;;;;17.58;64.32;102013.06;5012953;28;45648;-75
2021/06/08 04:00:37;;;;;;;;;30.25;24.50;;;;;17.60;63.87;102019.19;5012414;28;45445;-75
2021/06/08 04:03:10;;;;;;;;;27.75;26.00;;;;;17.59;63.98;102014.78;5013119;28;48377;-76
2021/06/08 04:05:37;;;;;;;;;30.25;26.75;;;;;17.58;64.22;102008.63;5013144;28;45579;-75
2021/06/08 04:08:05;;;;;;;;;25.50;21.25;;;;;17.59;63.97;102012.13;5013318;28;45500;-77
2021/06/08 04:10:31;;;;;;;;;24.25;23.00;;;;;17.63;63.85;102011.91;5012048;28;45451;-76
2021/06/08 04:13:01;;;;;;;;;25.00;23.75;;;;;17.65;63.83;102006.53;5011806;28;46430;-76
2021/06/08 04:15:26;;;;;;;;;25.75;23.25;;;;;17.68;64.00;102014.31;5013108;28;45483;-76
2021/06/08 04:17:53;;;;;;;;;26.50;25.50;;;;;17.73;63.55;102015.81;5013209;28;45507;-76
2021/06/08 04:20:19;;;;;;;;;26.00;24.00;;;;;17.80;63.94;102015.50;5011611;28;45894;-76
2021/06/08 04:22:46;;;;;;;;;34.25;23.75;;;;;17.87;63.81;102012.44;5014319;28;45346;-76
2021/06/08 04:25:13;;;;;;;;;33.00;28.50;;;;;17.94;63.35;102018.28;5014295;28;45359;-76
2021/06/08 04:27:39;;;;;;;;;33.25;25.75;;;;;17.97;63.62;102013.69;5011778;28;45596;-76
2021/06/08 04:30:10;;;;;;;;;31.50;27.25;;;;;18.07;63.54;102022.03;5013130;28;45403;-76
2021/06/08 04:32:36;;;;;;;;;33.75;27.00;;;;;18.14;63.16;102020.75;5012528;28;45563;-76
2021/06/08 04:35:05;;;;;;;;;28.50;24.50;;;;;18.23;63.22;102014.06;5013278;28;45448;-76
2021/06/08 04:37:30;;;;;;;;;26.00;23.25;;;;;18.32;63.06;102016.19;5014451;28;45524;-76
2021/06/08 04:39:56;;;;;;;;;24.00;23.25;;;;;18.42;62.80;102020.06;5013158;28;45584;-76
2021/06/08 04:42:21;;;;;;;;;26.75;24.50;;;;;18.52;62.99;102023.94;5012753;28;46151;-76
2021/06/08 04:44:49;;;;;;;;;27.75;25.00;;;;;18.61;62.91;102016.41;5013138;28;45407;-76
2021/06/08 04:47:16;;;;;;;;;25.75;23.75;;;;;18.70;62.18;102030.09;5012800;28;45709;-76
2021/06/08 04:49:42;;;;;;;;;34.00;27.00;;;;;18.79;62.13;102028.69;5013097;28;45458;-76
2021/06/08 04:52:08;;;;;;;;;31.50;23.50;;;;;18.93;61.99;102022.59;5012689;28;46472;-76
2021/06/08 04:54:34;;;;;;;;;23.50;22.00;;;;;19.01;61.37;102018.53;5013816;28;45956;-76
2021/06/08 04:57:02;;;;;;;;;28.75;26.25;;;;;19.10;61.19;102014.47;5012632;28;45563;-76
2021/06/08 04:59:46;;;;;;;;;28.50;27.25;;;;;19.23;61.00;102020.81;5012359;28;45561;-76
2021/06/08 05:02:25;;;;;;;;;27.25;26.25;;;;;19.31;61.13;102023.00;4998971;28;46225;-76
2021/06/08 05:04:51;;;;;;;;;28.25;26.00;;;;;19.43;60.26;102024.09;5012294;28;50301;-76
2021/06/08 05:07:19;;;;;;;;;24.50;22.00;;;;;19.50;60.51;102020.97;5013781;28;45449;-76
2021/06/08 05:09:48;;;;;;;;;27.75;26.25;;;;;19.55;60.12;102026.88;5006186;28;45658;-75
2021/06/08 05:12:16;;;;;;;;;26.75;25.25;;;;;19.59;59.88;102027.59;5001753;28;45571;-75
2021/06/08 05:14:50;;;;;;;;;30.75;24.50;;;;;19.62;59.60;102021.19;5010532;28;45488;-74
2021/06/08 05:17:19;;;;;;;;;27.00;26.00;;;;;19.61;59.59;102019.50;5016318;28;45524;-75
2021/06/08 05:19:47;;;;;;;;;35.25;30.25;;;;;19.62;59.41;102027.38;5009616;28;45461;-75
2021/06/08 05:22:17;;;;;;;;;31.25;26.75;;;;;19.57;59.52;102029.44;5013118;28;46380;-74
2021/06/08 05:24:47;;;;;;;;;31.50;27.50;;;;;19.55;59.62;102026.88;5012373;28;45752;-76
2021/06/08 05:27:13;;;;;;;;;28.25;26.75;;;;;19.56;59.51;102028.59;5012410;28;45767;-75
2021/06/08 05:29:39;;;;;;;;;30.25;28.75;;;;;19.61;59.71;102028.34;5012294;28;45536;-76
2021/06/08 05:32:04;;;;;;;;;34.00;26.25;;;;;19.63;59.37;102023.78;5014027;28;46520;-76
2021/06/08 05:34:30;;;;;;;;;26.00;25.25;;;;;19.59;59.14;102021.38;5013177;28;45410;-79
2021/06/08 05:36:55;;;;;;;;;38.00;29.00;;;;;19.59;59.43;102018.72;5012344;28;45453;-76
2021/06/08 05:39:20;;;;;;;;;33.25;27.50;;;;;19.63;59.28;102020.25;5011017;28;45464;-78
2021/06/08 05:41:46;;;;;;;;;32.25;28.00;;;;;19.66;59.43;102022.75;5012978;28;46619;-74
2021/06/08 05:44:14;;;;;;;;;28.25;26.75;;;;;19.75;59.44;102027.53;5013204;28;45453;-75
2021/06/08 05:46:40;;;;;;;;;27.50;24.75;;;;;19.84;59.30;102036.75;5005399;28;45609;-76
2021/06/08 05:49:08;;;;;;;;;33.75;29.00;;;;;19.95;59.19;102034.31;5011579;28;45521;-77
2021/06/08 05:51:36;;;;;;;;;33.50;29.00;;;;;20.08;58.96;102033.44;5010251;28;47318;-78
2021/06/08 05:54:04;;;;;;;;;36.75;31.00;;;;;20.24;58.68;102040.47;5010393;28;46019;-77
2021/06/08 05:56:32;;;;;;;;;33.25;29.00;;;;;20.35;58.49;102032.66;5011510;28;45549;-79
2021/06/08 05:58:58;;;;;;;;;29.50;26.50;;;;;20.44;58.20;102028.53;5011891;28;46026;-77
2021/06/08 06:01:26;;;;;;;;;31.25;27.75;;;;;20.57;57.99;102034.84;5012603;28;46357;-76
2021/06/08 06:03:52;;;;;;;;;35.75;31.25;;;;;20.70;57.58;102034.91;5014337;28;45445;-79
2021/06/08 06:06:17;;;;;;;;;37.50;27.75;;;;;20.79;57.58;102032.50;5017699;28;45548;-77
2021/06/08 06:08:43;;;;;;;;;32.00;27.75;;;;;20.88;57.15;102039.06;5022464;28;45292;-76
2021/06/08 06:11:09;;;;;;;;;34.00;30.75;;;;;20.96;56.27;102033.19;5016625;28;47472;-76
2021/06/08 06:13:47;;;;;;;;;32.75;28.00;;;;;20.95;56.62;102032.34;5013135;28;45757;-72
2021/06/08 06:16:15;;;;;;;;;30.00;26.00;;;;;20.97;56.69;102022.41;5015299;28;45869;-76
2021/06/08 06:18:41;;;;;;;;;32.75;26.50;;;;;21.03;56.74;102026.47;5012738;28;46821;-76
2021/06/08 06:21:07;;;;;;;;;33.50;28.50;;;;;21.09;56.54;102026.94;5012276;28;46342;-75
2021/06/08 06:23:34;;;;;;;;;25.75;21.50;;;;;21.19;56.42;102032.50;5011616;28;45499;-77
2021/06/08 06:26:00;;;;;;;;;34.00;27.50;;;;;21.27;56.27;102022.16;5009233;28;45360;-77
2021/06/08 06:28:26;;;;;;;;;30.50;26.50;;;;;21.35;56.11;102037.72;5010604;28;45491;-76
2021/06/08 06:30:51;;;;;;;;;32.75;27.25;;;;;21.36;56.41;102026.94;5011710;28;46619;-77
2021/06/08 06:33:17;;;;;;;;;31.75;27.50;;;;;21.39;56.20;102027.69;5011832;28;45612;-77
2021/06/08 06:35:43;;;;;;;;;30.75;22.50;;;;;21.46;55.82;102027.16;5014066;28;45479;-77
2021/06/08 06:38:09;;;;;;;;;29.75;23.75;;;;;21.54;55.33;102040.84;5013004;28;45513;-77
2021/06/08 06:40:36;;;;;;;;;32.75;27.25;;;;;21.59;55.70;102045.91;5015371;28;46191;-77
2021/06/08 06:43:04;;;;;;;;;32.75;27.50;;;;;21.62;55.15;102040.34;5013290;28;45756;-76
2021/06/08 06:45:31;;;;;;;;;33.50;26.00;;;;;21.65;55.52;102042.78;5012306;28;45401;-77
2021/06/08 06:48:06;;;;;;;;;28.25;26.00;;;;;21.73;55.07;102044.97;5012030;28;45369;-77
2021/06/08 06:50:36;;;;;;;;;27.50;25.75;;;;;21.81;54.84;102047.94;5012304;28;45610;-77
2021/06/08 06:53:01;;;;;;;;;32.75;29.75;;;;;21.85;55.28;102046.78;5013360;28;46077;-77
2021/06/08 06:55:29;;;;;;;;;33.75;27.75;;;;;21.93;55.36;102043.56;4998805;28;45587;-77
2021/06/08 06:57:54;;;;;;;;;44.75;34.50;;;;;22.04;54.54;102052.56;5010619;28;45520;-77
2021/06/08 07:00:21;;;;;;;;;35.25;27.25;;;;;22.09;54.32;102039.69;5011873;28;45745;-77
2021/06/08 07:02:48;;;;;;;;;34.25;29.00;;;;;22.25;54.70;102052.88;5012597;28;45907;-76
2021/06/08 07:05:16;;;;;;;;;32.25;29.50;;;;;22.33;53.55;102055.84;5014889;28;45388;-77
2021/06/08 07:07:44;;;;;;;;;35.25;26.25;;;;;22.40;53.81;102053.63;5015574;28;45477;-77
2021/06/08 07:10:11;;;;;;;;;24.25;20.75;;;;;22.49;53.93;102054.75;5015138;28;47180;-77
2021/06/08 07:12:40;;;;;;;;;30.75;27.00;;;;;22.61;54.03;102051.19;5013796;28;45859;-76
2021/06/08 07:15:06;;;;;;;;;36.50;31.50;;;;;22.71;53.13;102041.53;5013880;28;45388;-76
2021/06/08 07:17:32;;;;;;;;;29.00;27.00;;;;;22.75;52.89;102048.34;5014013;28;45555;-75
2021/06/08 07:19:59;;;;;;;;;27.00;24.25;;;;;22.85;52.85;102045.84;5014834;28;46906;-75
2021/06/08 07:22:25;;;;;;;;;35.25;28.75;;;;;22.92;51.91;102041.78;5013761;28;45567;-76
2021/06/08 07:24:51;;;;;;;;;28.50;26.75;;;;;23.04;52.07;102045.38;5007686;28;45719;-76
2021/06/08 07:27:17;;;;;;;;;30.50;26.00;;;;;23.15;52.25;102040.06;5012061;28;45649;-75
2021/06/08 07:29:44;;;;;;;;;28.50;24.50;;;;;23.21;51.61;102033.38;5011309;28;46506;-77
2021/06/08 07:32:32;;;;;;;;;30.75;25.00;;;;;23.35;51.98;102035.88;5012856;28;45644;-77
2021/06/08 07:35:02;;;;;;;;;32.75;26.50;;;;;23.46;51.14;102035.91;5012431;28;45606;-78
2021/06/08 07:37:32;;;;;;;;;34.75;28.50;;;;;23.56;51.60;102036.91;5014913;28;45522;-78
2021/06/08 07:40:04;;;;;;;;;32.25;24.75;;;;;23.67;51.21;102036.94;5011787;28;46644;-77
2021/06/08 07:42:35;;;;;;;;;32.50;27.00;;;;;23.87;50.32;102039.91;5013730;28;45867;-78
2021/06/08 07:45:05;;;;;;;;;30.75;27.50;;;;;24.03;50.80;102032.34;5013636;28;45299;-77
2021/06/08 07:47:31;;;;;;;;;28.75;24.25;;;;;24.28;50.32;102033.09;5012721;28;45399;-77
2021/06/08 07:49:59;;;;;;;;;28.25;27.25;;;;;24.50;50.07;102030.41;5013550;28;46336;-77
2021/06/08 07:52:26;;;;;;;;;25.50;24.50;;;;;24.80;49.63;102028.88;5015478;28;45352;-78
2021/06/08 07:54:52;;;;;;;;;30.00;22.75;;;;;25.06;48.92;102029.34;5011584;28;45381;-77
2021/06/08 07:57:19;;;;;;;;;26.50;23.25;;;;;25.42;49.13;102025.41;5011036;28;45433;-76
2021/06/08 07:59:45;;;;;;;;;25.75;23.75;;;;;25.77;48.69;102025.97;5011361;28;46367;-77
2021/06/08 08:02:11;;;;;;;;;26.25;25.00;;;;;26.18;47.86;102024.16;5011280;28;45984;-78
2021/06/08 08:04:48;;;;;;;;;26.25;24.25;;;;;27.10;47.66;102029.38;5013617;28;45419;-77
2021/06/08 08:07:19;;;;;;;;;24.50;21.25;;;;;28.74;46.04;102030.66;5014080;28;45304;-78
2021/06/08 08:09:44;;;;;;;;;28.25;26.25;;;;;30.24;43.27;102019.81;5010895;28;47494;-77
2021/06/08 08:12:10;;;;;;;;;27.75;24.75;;;;;31.88;41.62;102016.19;5012802;28;45642;-77
2021/06/08 08:14:35;;;;;;;;;26.00;24.25;;;;;33.04;38.92;102015.41;5011506;28;45498;-77
2021/06/08 08:17:01;;;;;;;;;32.75;27.25;;;;;34.27;37.91;102018.59;5012653;28;45475;-77
2021/06/08 08:19:27;;;;;;;;;27.25;23.00;;;;;34.84;36.19;102019.66;5012986;28;46734;-78
2021/06/08 08:21:52;;;;;;;;;22.25;21.75;;;;;34.98;34.54;102021.50;5011004;28;45419;-78
2021/06/08 08:24:18;;;;;;;;;28.75;24.25;;;;;34.67;34.89;102016.34;5010788;28;45371;-77
2021/06/08 08:26:44;;;;;;;;;28.25;25.75;;;;;35.03;34.49;102019.88;5010878;28;45592;-78
2021/06/08 08:29:10;;;;;;;;;27.50;24.25;;;;;36.82;32.50;102017.31;4995429;28;45413;-77
2021/06/08 08:31:37;;;;;;;;;29.25;26.50;;;;;39.09;31.70;102017.25;5014163;28;45374;-78
2021/06/08 08:34:04;;;;;;;;;26.50;21.00;;;;;40.93;29.70;102014.47;5010853;28;45386;-76
2021/06/08 08:36:31;;;;;;;;;24.00;23.50;;;;;42.64;27.39;102017.69;5011179;28;45378;-78
2021/06/08 08:38:56;;;;;;;;;23.25;19.00;;;;;44.04;25.84;102027.88;5010547;28;46337;-76
2021/06/08 08:41:22;;;;;;;;;27.00;24.75;;;;;44.60;24.21;102025.75;5013764;28;45385;-73
2021/06/08 08:43:51;;;;;;;;;26.75;23.75;;;;;45.46;23.50;102028.41;5014208;28;45385;-77
2021/06/08 08:46:18;;;;;;;;;34.00;29.00;;;;;46.53;22.19;102023.28;5013611;28;45522;-77
2021/06/08 08:48:45;;;;;;;;;31.25;27.75;;;;;47.70;21.91;102030.69;5012686;28;46481;-75
2021/06/08 08:51:13;;;;;;;;;23.50;22.75;;;;;48.86;21.38;102031.94;5012947;28;45370;-77
2021/06/08 08:53:39;;;;;;;;;27.25;22.75;;;;;49.88;19.50;102028.09;5013781;28;45460;-78
2021/06/08 08:56:05;;;;;;;;;24.50;22.50;;;;;50.63;18.76;102030.06;5012425;28;45525;-79
2021/06/08 08:58:33;;;;;;;;;29.50;23.75;;;;;51.03;17.29;102036.09;5013146;28;47412;-78
2021/06/08 09:00:59;;;;;;;;;24.00;20.50;;;;;51.67;17.30;102030.66;5012437;28;45435;-78
2021/06/08 09:03:25;;;;;;;;;23.75;23.25;;;;;52.17;16.60;102036.34;5011751;28;45331;-78
2021/06/08 09:05:56;;;;;;;;;27.50;25.25;;;;;52.38;15.94;102034.69;5012669;28;45499;-78
2021/06/08 09:08:22;;;;;;;;;27.75;27.50;;;;;52.85;15.54;102037.19;5012414;28;47685;-78
2021/06/08 09:10:48;;;;;;;;;21.50;21.00;;;;;53.55;15.20;102032.75;5012117;28;45387;-79
2021/06/08 09:13:13;;;;;;;;;19.25;18.00;;;;;54.45;14.68;102033.81;5013064;28;45422;-79
2021/06/08 09:15:38;;;;;;;;;23.75;20.75;;;;;55.14;14.15;102035.72;5008665;28;45527;-79
2021/06/08 09:18:04;;;;;;;;;19.25;17.75;;;;;55.58;14.04;102036.31;5003837;28;45445;-79
2021/06/08 09:20:31;;;;;;;;;15.25;15.25;;;;;55.59;13.70;102025.84;5012387;28;45544;-79
2021/06/08 09:23:00;;;;;;;;;22.75;19.00;;;;;55.14;13.29;102027.25;5012854;28;45371;-79
2021/06/08 09:25:34;;;;;;;;;16.25;15.50;;;;;54.52;13.90;102021.28;5013620;28;45439;-78
2021/06/08 09:28:28;;;;;;;;;21.25;19.50;;;;;53.64;14.12;102019.53;5012083;28;45541;-79
2021/06/08 09:31:04;;;;;;;;;17.50;16.25;;;;;52.68;14.69;102019.06;5012202;28;45379;-78
2021/06/08 09:33:35;;;;;;;;;18.00;18.00;;;;;51.73;14.92;102009.78;5011925;28;45478;-79
2021/06/08 09:36:11;;;;;;;;;15.25;13.50;;;;;50.94;15.62;102009.13;5012663;28;45610;-77
2021/06/08 09:38:41;;;;;;;;;18.25;17.00;;;;;50.35;15.42;102008.69;5015559;28;46351;-79
2021/06/08 09:41:15;;;;;;;;;17.75;15.00;;;;;49.73;15.60;102007.88;5015812;28;45809;-79
2021/06/08 09:44:16;;;;;;;;;16.25;16.00;;;;;49.25;16.00;102007.88;5013657;28;45375;-79
2021/06/08 09:46:48;;;;;;;;;17.00;15.00;;;;;48.95;15.99;102006.22;5013660;28;45311;-79
2021/06/08 09:49:37;;;;;;;;;12.25;12.25;;;;;48.82;15.93;101994.63;5016020;28;45576;-78
2021/06/08 09:52:10;;;;;;;;;13.75;13.50;;;;;48.45;16.68;102000.78;5015552;28;45567;-79
2021/06/08 09:54:48;;;;;;;;;13.75;13.75;;;;;48.26;16.71;102005.34;5015173;28;45710;-78
2021/06/08 09:57:27;;;;;;;;;14.75;14.75;;;;;48.09;16.70;102005.75;5015358;28;45509;-79
2021/06/08 09:59:54;;;;;;;;;12.25;12.25;;;;;47.99;17.05;102003.84;5014244;28;45643;-78
2021/06/08 10:02:24;;;;;;;;;15.75;13.00;;;;;47.69;16.79;102004.78;5013707;28;45821;-79
2021/06/08 10:04:50;;;;;;;;;13.50;12.50;;;;;47.00;16.73;102003.56;5018244;28;45580;-79
2021/06/08 10:07:26;;;;;;;;;15.25;14.75;;;;;45.95;17.05;102000.31;5020484;28;45913;-79
2021/06/08 10:10:10;;;;;;;;;16.00;15.75;;;;;44.97;18.26;101986.97;5018545;28;45540;-77
2021/06/08 10:12:36;;;;;;;;;15.25;12.50;;;;;44.04;18.11;101987.16;5014780;28;45594;-79
2021/06/08 10:15:10;;;;;;;;;12.25;12.25;;;;;43.22;18.63;101991.56;5024087;28;45496;-79
2021/06/08 10:17:37;;;;;;;;;9.25;9.25;;;;;42.66;18.95;101987.06;5015205;28;45552;-79
2021/06/08 10:20:19;;;;;;;;;13.75;13.25;;;;;41.58;20.10;101981.28;5014568;28;45680;-78
2021/06/08 10:22:44;;;;;;;;;15.50;13.25;;;;;40.16;20.36;101987.59;5012555;28;45676;-78
2021/06/08 10:25:11;;;;;;;;;11.00;11.00;;;;;39.13;21.54;101979.16;5015604;28;45415;-78
2021/06/08 10:27:37;;;;;;;;;15.25;14.25;;;;;38.83;21.58;101976.25;5013561;28;45577;-77
2021/06/08 10:30:06;;;;;;;;;19.25;17.75;;;;;38.37;21.97;101978.25;5013313;28;45522;-77
2021/06/08 10:32:33;;;;;;;;;13.75;13.25;;;;;37.93;22.57;101975.47;5009193;28;45548;-77
2021/06/08 10:34:58;;;;;;;;;16.25;14.25;;;;;37.48;22.55;101972.63;5013676;28;45603;-77
2021/06/08 10:37:24;;;;;;;;;13.25;13.25;;;;;36.88;22.85;101974.53;5015786;28;45533;-78
2021/06/08 10:39:49;;;;;;;;;12.50;12.00;;;;;36.48;23.39;101972.56;5014508;28;46578;-78
2021/06/08 10:42:16;;;;;;;;;10.25;9.50;;;;;36.20;24.80;101971.84;5013232;28;45833;-77
2021/06/08 10:44:42;;;;;;;;;11.00;10.00;;;;;35.99;24.49;101970.94;5012648;28;45545;-77
2021/06/08 10:47:32;;;;;;;;;14.25;12.75;;;;;35.97;24.15;101972.16;5014059;28;45346;-74
2021/06/08 10:49:58;;;;;;;;;13.00;12.50;;;;;36.10;24.00;101969.50;5013461;28;45983;-76
2021/06/08 10:52:25;;;;;;;;;15.50;14.50;;;;;36.09;23.56;101966.97;5014220;28;45330;-78
2021/06/08 10:54:52;;;;;;;;;13.75;12.50;;;;;35.80;24.29;101957.97;5011948;28;45555;-77
2021/06/08 10:57:18;;;;;;;;;12.25;12.25;;;;;35.59;24.60;101952.59;5013712;28;45426;-76
2021/06/08 10:59:53;;;;;;;;;14.00;13.50;;;;;35.52;24.35;101956.16;5014550;28;46822;-77
2021/06/08 11:02:40;;;;;;;;;15.75;13.25;;;;;35.58;25.29;101961.84;5004656;28;45568;-77
2021/06/08 11:05:06;;;;;;;;;14.00;14.00;;;;;35.35;25.13;101962.94;5015144;28;45255;-78
2021/06/08 11:07:47;;;;;;;;;14.50;14.00;;;;;35.04;25.28;101966.09;5016010;28;45284;-77
2021/06/08 11:10:30;;;;;;;;;16.50;12.00;;;;;34.48;26.61;101963.22;5015882;28;46568;-76
2021/06/08 11:13:07;;;;;;;;;15.25;13.25;;;;;34.08;26.19;101960.00;5013889;28;45664;-77
2021/06/08 11:15:46;;;;;;;;;14.50;13.00;;;;;33.74;27.25;101961.44;5014697;28;45487;-78
2021/06/08 11:18:25;;;;;;;;;11.75;10.75;;;;;33.63;27.38;101961.91;5015859;28;45625;-77